Time,TemperatureF,DewpointF,PressureIn,WindDirection,WindDirectionDegrees,WindSpeedMPH,WindSpeedGustMPH,Humidity,HourlyPrecipIn,Conditions,Clouds,dailyrainin,SoftwareType,DateUTC
2013-03-04 00:00:00,34.8,30.2,30.17,West,259,0.0,0.0,83,0.00,,,0.00,Wunderground v.1.15,2013-03-04 05:00:00,
2013-03-04 00:05:00,34.6,30.0,30.17,West,259,0.0,0.0,83,0.00,,,0.00,Wunderground v.1.15,2013-03-04 05:05:00,
2013-03-04 00:15:00,34.2,29.9,30.17,West,259,0.0,0.0,84,0.00,,,0.00,Wunderground v.1.15,2013-03-04 05:15:00,
2013-03-04 00:20:00,34.1,30.1,30.17,West,259,0.0,0.0,85,0.00,,,0.00,Wunderground v.1.15,2013-03-04 05:20:00,
2013-03-04 00:30:00,33.8,29.8,30.17,West,259,0.0,0.0,85,0.00,,,0.00,Wunderground v.1.15,2013-03-04 05:30:00,
2013-03-04 00:35:00,33.7,30.0,30.16,West,259,0.0,0.0,86,0.00,,,0.00,Wunderground v.1.15,2013-03-04 05:35:00,
2013-03-04 00:45:00,33.5,29.8,30.17,West,259,0.0,0.0,86,0.00,,,0.00,Wunderground v.1.15,2013-03-04 05:45:00,
2013-03-04 00:50:00,33.5,29.8,30.17,West,259,0.0,0.0,86,0.00,,,0.00,Wunderground v.1.15,2013-03-04 05:50:00,
2013-03-04 00:55:00,33.4,29.7,30.17,West,259,0.0,0.0,86,0.00,,,0.00,Wunderground v.1.15,2013-03-04 05:55:00,
2013-03-04 01:05:00,33.2,29.5,30.17,West,259,0.0,0.0,86,0.00,,,0.00,Wunderground v.1.15,2013-03-04 06:05:00,
2013-03-04 01:10:00,33.1,29.4,30.17,West,259,0.0,0.0,86,0.00,,,0.00,Wunderground v.1.15,2013-03-04 06:10:00,
2013-03-04 01:15:00,33.0,29.3,30.17,West,259,0.0,0.0,86,0.00,,,0.00,Wunderground v.1.15,2013-03-04 06:15:00,
2013-03-04 01:25:00,32.9,29.5,30.17,West,259,0.0,0.0,87,0.00,,,0.00,Wunderground v.1.15,2013-03-04 06:25:00,
2013-03-04 01:30:00,32.8,29.4,30.17,West,259,0.0,0.0,87,0.00,,,0.00,Wunderground v.1.15,2013-03-04 06:30:00,
2013-03-04 01:40:00,32.7,29.5,30.17,West,259,0.0,0.0,88,0.00,,,0.00,Wunderground v.1.15,2013-03-04 06:40:00,
2013-03-04 01:45:00,32.5,29.3,30.17,West,259,0.0,0.0,88,0.00,,,0.00,Wunderground v.1.15,2013-03-04 06:45:00,
2013-03-04 01:55:00,32.3,28.9,30.17,West,259,0.0,0.0,87,0.00,,,0.00,Wunderground v.1.15,2013-03-04 06:55:00,
2013-03-04 02:00:00,32.2,28.8,30.17,West,259,0.0,0.0,87,0.00,,,0.00,Wunderground v.1.15,2013-03-04 07:00:00,
2013-03-04 02:05:00,32.0,28.6,30.17,West,259,0.0,0.0,87,0.00,,,0.00,Wunderground v.1.15,2013-03-04 07:05:00,
2013-03-04 02:15:00,31.8,28.7,30.16,West,259,0.0,0.0,88,0.00,,,0.00,Wunderground v.1.15,2013-03-04 07:15:00,
2013-03-04 02:20:00,31.7,28.6,30.17,West,259,0.0,0.0,88,0.00,,,0.00,Wunderground v.1.15,2013-03-04 07:20:00,
2013-03-04 02:25:00,31.5,28.4,30.17,West,259,0.0,0.0,88,0.00,,,0.00,Wunderground v.1.15,2013-03-04 07:25:00,
2013-03-04 02:35:00,31.4,28.5,30.16,West,259,0.0,0.0,89,0.00,,,0.00,Wunderground v.1.15,2013-03-04 07:35:00,
2013-03-04 02:40:00,31.4,28.5,30.16,West,259,0.0,0.0,89,0.00,,,0.00,Wunderground v.1.15,2013-03-04 07:40:00,
2013-03-04 02:50:00,31.3,28.4,30.16,West,259,0.0,0.0,89,0.00,,,0.00,Wunderground v.1.15,2013-03-04 07:50:00,
2013-03-04 02:55:00,31.3,28.4,30.16,West,259,0.0,0.0,89,0.00,,,0.00,Wunderground v.1.15,2013-03-04 07:55:00,
2013-03-04 03:00:00,31.3,28.4,30.16,West,259,0.0,0.0,89,0.00,,,0.00,Wunderground v.1.15,2013-03-04 08:00:00,
2013-03-04 03:10:00,31.2,28.3,30.15,West,259,0.0,0.0,89,0.00,,,0.00,Wunderground v.1.15,2013-03-04 08:10:00,
2013-03-04 03:15:00,31.2,28.3,30.15,West,259,0.0,0.0,89,0.00,,,0.00,Wunderground v.1.15,2013-03-04 08:15:00,
2013-03-04 03:20:00,31.1,28.5,30.15,West,259,0.0,0.0,90,0.00,,,0.00,Wunderground v.1.15,2013-03-04 08:20:00,
2013-03-04 03:30:00,31.0,28.4,30.15,West,259,0.0,0.0,90,0.00,,,0.00,Wunderground v.1.15,2013-03-04 08:30:00,
2013-03-04 03:35:00,30.9,28.3,30.15,West,259,0.0,0.0,90,0.00,,,0.00,Wunderground v.1.15,2013-03-04 08:35:00,
2013-03-04 03:45:00,30.8,28.5,30.15,West,259,0.0,0.0,91,0.00,,,0.00,Wunderground v.1.15,2013-03-04 08:45:00,
2013-03-04 03:50:00,30.8,28.2,30.15,West,259,0.0,0.0,90,0.00,,,0.00,Wunderground v.1.15,2013-03-04 08:50:00,
2013-03-04 03:55:00,30.7,28.1,30.15,West,259,0.0,0.0,90,0.00,,,0.00,Wunderground v.1.15,2013-03-04 08:55:00,
2013-03-04 04:00:00,30.6,28.0,30.15,West,259,0.0,0.0,90,0.00,,,0.00,Wunderground v.1.15,2013-03-04 09:00:00,
2013-03-04 04:10:00,30.5,27.9,30.16,West,259,0.0,0.0,90,0.00,,,0.00,Wunderground v.1.15,2013-03-04 09:10:00,
2013-03-04 04:20:00,30.4,27.8,30.16,West,259,0.0,0.0,90,0.00,,,0.00,Wunderground v.1.15,2013-03-04 09:20:00,
2013-03-04 04:25:00,30.3,27.7,30.16,West,259,0.0,0.0,90,0.00,,,0.00,Wunderground v.1.15,2013-03-04 09:25:00,
2013-03-04 04:35:00,30.1,27.8,30.16,West,259,0.0,0.0,91,0.00,,,0.00,Wunderground v.1.15,2013-03-04 09:35:00,
2013-03-04 04:40:00,30.1,27.8,30.16,West,259,0.0,0.0,91,0.00,,,0.00,Wunderground v.1.15,2013-03-04 09:40:00,
2013-03-04 04:50:00,30.0,27.7,30.16,West,259,0.0,0.0,91,0.00,,,0.00,Wunderground v.1.15,2013-03-04 09:50:00,
2013-03-04 04:55:00,29.9,27.6,30.16,West,259,0.0,0.0,91,0.00,,,0.00,Wunderground v.1.15,2013-03-04 09:55:00,
2013-03-04 05:05:00,29.9,27.6,30.16,West,259,0.0,0.0,91,0.00,,,0.00,Wunderground v.1.15,2013-03-04 10:05:00,
2013-03-04 05:10:00,29.9,27.9,30.16,West,259,0.0,0.0,92,0.00,,,0.00,Wunderground v.1.15,2013-03-04 10:10:00,
2013-03-04 05:20:00,29.9,27.9,30.16,West,259,0.0,0.0,92,0.00,,,0.00,Wunderground v.1.15,2013-03-04 10:20:00,
2013-03-04 05:25:00,29.9,27.9,30.16,West,259,0.0,0.0,92,0.00,,,0.00,Wunderground v.1.15,2013-03-04 10:25:00,
2013-03-04 05:35:00,29.9,27.9,30.16,West,259,0.0,0.0,92,0.00,,,0.00,Wunderground v.1.15,2013-03-04 10:35:00,
2013-03-04 05:40:00,29.9,27.9,30.16,West,259,0.0,0.0,92,0.00,,,0.00,Wunderground v.1.15,2013-03-04 10:40:00,
2013-03-04 05:45:00,29.9,28.1,30.17,West,259,0.0,0.0,93,0.00,,,0.00,Wunderground v.1.15,2013-03-04 10:45:00,
2013-03-04 05:55:00,29.8,27.8,30.18,West,259,0.0,0.0,92,0.00,,,0.00,Wunderground v.1.15,2013-03-04 10:55:00,
2013-03-04 06:00:00,29.7,27.7,30.18,West,259,0.0,0.0,92,0.00,,,0.00,Wunderground v.1.15,2013-03-04 11:00:00,
2013-03-04 06:05:00,29.6,27.6,30.18,West,259,0.0,0.0,92,0.00,,,0.00,Wunderground v.1.15,2013-03-04 11:05:00,
2013-03-04 06:10:00,29.6,27.6,30.19,West,259,0.0,0.0,92,0.00,,,0.00,Wunderground v.1.15,2013-03-04 11:10:00,
2013-03-04 06:20:00,29.6,27.6,30.19,West,259,0.0,0.0,92,0.00,,,0.00,Wunderground v.1.15,2013-03-04 11:20:00,
2013-03-04 06:25:00,29.5,27.5,30.19,West,259,0.0,0.0,92,0.00,,,0.00,Wunderground v.1.15,2013-03-04 11:25:00,
2013-03-04 06:30:00,29.4,27.4,30.20,West,259,0.0,0.0,92,0.00,,,0.00,Wunderground v.1.15,2013-03-04 11:30:00,
2013-03-04 06:40:00,29.4,27.1,30.19,West,259,0.0,0.0,91,0.00,,,0.00,Wunderground v.1.15,2013-03-04 11:40:00,
2013-03-04 06:45:00,29.4,27.1,30.19,West,259,0.0,0.0,91,0.00,,,0.00,Wunderground v.1.15,2013-03-04 11:45:00,
2013-03-04 06:55:00,29.4,27.1,30.20,West,259,0.0,0.0,91,0.00,,,0.00,Wunderground v.1.15,2013-03-04 11:55:00,
2013-03-04 07:00:00,29.4,27.1,30.20,West,259,0.0,0.0,91,0.00,,,0.00,Wunderground v.1.15,2013-03-04 12:00:00,
2013-03-04 07:10:00,29.7,27.7,30.21,West,259,0.0,0.0,92,0.00,,,0.00,Wunderground v.1.15,2013-03-04 12:10:00,
2013-03-04 07:15:00,29.8,27.8,30.21,West,259,0.0,0.0,92,0.00,,,0.00,Wunderground v.1.15,2013-03-04 12:15:00,
2013-03-04 07:20:00,29.9,27.9,30.22,West,259,0.0,0.0,92,0.00,,,0.00,Wunderground v.1.15,2013-03-04 12:20:00,
2013-03-04 07:30:00,30.2,28.2,30.22,West,259,0.0,0.0,92,0.00,,,0.00,Wunderground v.1.15,2013-03-04 12:30:00,
2013-03-04 07:35:00,30.3,28.3,30.22,West,259,0.0,0.0,92,0.00,,,0.00,Wunderground v.1.15,2013-03-04 12:35:00,
2013-03-04 07:45:00,31.0,28.9,30.23,West,259,0.0,0.0,92,0.00,,,0.00,Wunderground v.1.15,2013-03-04 12:45:00,
2013-03-04 07:50:00,31.6,29.3,30.23,West,259,0.0,0.0,91,0.00,,,0.00,Wunderground v.1.15,2013-03-04 12:50:00,
2013-03-04 08:00:00,33.8,30.6,30.23,SSE,161,0.0,0.0,88,0.00,,,0.00,Wunderground v.1.15,2013-03-04 13:00:00,
2013-03-04 08:05:00,35.1,31.3,30.23,SSE,161,0.0,0.0,86,0.00,,,0.00,Wunderground v.1.15,2013-03-04 13:05:00,
2013-03-04 08:10:00,36.4,31.7,30.24,SSE,161,0.0,0.0,83,0.00,,,0.00,Wunderground v.1.15,2013-03-04 13:10:00,
2013-03-04 08:15:00,37.4,32.4,30.24,SSE,161,0.0,0.0,82,0.00,,,0.00,Wunderground v.1.15,2013-03-04 13:15:00,
2013-03-04 08:25:00,39.6,31.7,30.24,WNW,285,0.0,1.0,73,0.00,,,0.00,Wunderground v.1.15,2013-03-04 13:25:00,
2013-03-04 08:30:00,40.4,31.4,30.24,NNE,25,1.0,1.0,70,0.00,,,0.00,Wunderground v.1.15,2013-03-04 13:30:00,
2013-03-04 08:40:00,41.9,31.7,30.24,North,355,1.0,1.0,67,0.00,,,0.00,Wunderground v.1.15,2013-03-04 13:40:00,
2013-03-04 08:45:00,42.7,30.6,30.24,North,350,1.0,1.0,62,0.00,,,0.00,Wunderground v.1.15,2013-03-04 13:45:00,
2013-03-04 08:55:00,44.0,31.0,30.24,North,350,1.0,1.0,60,0.00,,,0.00,Wunderground v.1.15,2013-03-04 13:55:00,
2013-03-04 09:00:00,44.6,30.7,30.24,NW,322,1.0,1.0,58,0.00,,,0.00,Wunderground v.1.15,2013-03-04 14:00:00,
2013-03-04 09:10:00,45.9,30.6,30.24,NNW,334,1.0,2.0,55,0.00,,,0.00,Wunderground v.1.15,2013-03-04 14:10:00,
2013-03-04 09:15:00,46.5,29.8,30.24,NW,323,2.0,2.0,52,0.00,,,0.00,Wunderground v.1.15,2013-03-04 14:15:00,
2013-03-04 09:20:00,47.0,29.3,30.24,ENE,68,2.0,2.0,50,0.00,,,0.00,Wunderground v.1.15,2013-03-04 14:20:00,
2013-03-04 09:30:00,48.0,28.7,30.24,NW,304,2.0,2.0,47,0.00,,,0.00,Wunderground v.1.15,2013-03-04 14:30:00,
2013-03-04 09:35:00,48.4,28.0,30.24,NW,324,2.0,2.0,45,0.00,,,0.00,Wunderground v.1.15,2013-03-04 14:35:00,
2013-03-04 09:45:00,49.0,28.0,30.24,NW,317,2.0,3.0,44,0.00,,,0.00,Wunderground v.1.15,2013-03-04 14:45:00,
2013-03-04 09:50:00,49.2,27.6,30.24,NW,320,2.0,2.0,43,0.00,,,0.00,Wunderground v.1.15,2013-03-04 14:50:00,
2013-03-04 09:55:00,49.7,26.9,30.24,NW,319,1.0,2.0,41,0.00,,,0.00,Wunderground v.1.15,2013-03-04 14:55:00,
2013-03-04 10:05:00,50.5,25.8,30.24,North,5,2.0,2.0,38,0.00,,,0.00,Wunderground v.1.15,2013-03-04 15:05:00,
2013-03-04 10:10:00,50.5,26.4,30.24,North,355,2.0,2.0,39,0.00,,,0.00,Wunderground v.1.15,2013-03-04 15:10:00,
2013-03-04 10:20:00,51.1,27.0,30.23,NNW,346,2.0,2.0,39,0.00,,,0.00,Wunderground v.1.15,2013-03-04 15:20:00,
2013-03-04 10:25:00,51.2,27.1,30.23,North,355,2.0,2.0,39,0.00,,,0.00,Wunderground v.1.15,2013-03-04 15:25:00,
2013-03-04 10:35:00,51.7,26.2,30.23,NNW,346,2.0,3.0,37,0.00,,,0.00,Wunderground v.1.15,2013-03-04 15:35:00,
2013-03-04 10:45:00,52.2,26.0,30.23,NNW,333,2.0,2.0,36,0.00,,,0.00,Wunderground v.1.15,2013-03-04 15:45:00,
2013-03-04 10:50:00,52.1,26.6,30.23,North,360,2.0,2.0,37,0.00,,,0.00,Wunderground v.1.15,2013-03-04 15:50:00,
2013-03-04 11:00:00,52.9,27.3,30.23,NW,323,2.0,2.0,37,0.00,,,0.00,Wunderground v.1.15,2013-03-04 16:00:00,
2013-03-04 11:05:00,53.0,26.0,30.22,NW,309,2.0,2.0,35,0.00,,,0.00,Wunderground v.1.15,2013-03-04 16:05:00,
2013-03-04 11:15:00,53.5,26.5,30.23,West,280,1.0,3.0,35,0.00,,,0.00,Wunderground v.1.15,2013-03-04 16:15:00,
2013-03-04 11:25:00,55.0,27.8,30.22,NW,322,1.0,3.0,35,0.00,,,0.00,Wunderground v.1.15,2013-03-04 16:25:00,
2013-03-04 11:30:00,55.2,26.6,30.22,NNW,341,1.0,1.0,33,0.00,,,0.00,Wunderground v.1.15,2013-03-04 16:30:00,
2013-03-04 11:40:00,55.7,26.3,30.22,NW,326,1.0,1.0,32,0.00,,,0.00,Wunderground v.1.15,2013-03-04 16:40:00,
2013-03-04 11:45:00,55.6,26.2,30.22,SW,222,1.0,1.0,32,0.00,,,0.00,Wunderground v.1.15,2013-03-04 16:45:00,
2013-03-04 11:55:00,56.3,25.2,30.21,East,79,1.0,1.0,30,0.00,,,0.00,Wunderground v.1.15,2013-03-04 16:55:00,
2013-03-04 12:00:00,56.7,26.4,30.21,SW,232,1.0,1.0,31,0.00,,,0.00,Wunderground v.1.15,2013-03-04 17:00:00,
2013-03-04 12:10:00,57.6,27.2,30.20,SE,134,1.0,1.0,31,0.00,,,0.00,Wunderground v.1.15,2013-03-04 17:10:00,
2013-03-04 12:15:00,58.0,25.9,30.20,WNW,286,1.0,4.0,29,0.00,,,0.00,Wunderground v.1.15,2013-03-04 17:15:00,
2013-03-04 12:25:00,58.9,23.1,30.20,SSE,167,1.0,1.0,25,0.00,,,0.00,Wunderground v.1.15,2013-03-04 17:25:00,
2013-03-04 12:30:00,59.0,24.1,30.20,ENE,64,1.0,1.0,26,0.00,,,0.00,Wunderground v.1.15,2013-03-04 17:30:00,
2013-03-04 12:40:00,59.5,24.5,30.19,South,173,1.0,1.0,26,0.00,,,0.00,Wunderground v.1.15,2013-03-04 17:40:00,
2013-03-04 12:45:00,59.3,25.3,30.18,NNE,16,1.0,1.0,27,0.00,,,0.00,Wunderground v.1.15,2013-03-04 17:45:00,
2013-03-04 12:50:00,59.2,25.2,30.18,NE,34,1.0,2.0,27,0.00,,,0.00,Wunderground v.1.15,2013-03-04 17:50:00,
2013-03-04 12:55:00,59.4,23.5,30.18,WNW,282,1.0,2.0,25,0.00,,,0.00,Wunderground v.1.15,2013-03-04 17:55:00,
2013-03-04 13:05:00,59.9,26.7,30.17,WNW,286,1.0,2.0,28,0.00,,,0.00,Wunderground v.1.15,2013-03-04 18:05:00,
2013-03-04 13:10:00,60.4,26.2,30.17,NNE,28,1.0,1.0,27,0.00,,,0.00,Wunderground v.1.15,2013-03-04 18:10:00,
2013-03-04 13:15:00,60.4,25.3,30.17,North,10,1.0,1.0,26,0.00,,,0.00,Wunderground v.1.15,2013-03-04 18:15:00,
2013-03-04 13:25:00,60.6,25.5,30.16,North,355,1.0,2.0,26,0.00,,,0.00,Wunderground v.1.15,2013-03-04 18:25:00,
2013-03-04 13:30:00,61.3,25.1,30.17,NNE,24,2.0,2.0,25,0.00,,,0.00,Wunderground v.1.15,2013-03-04 18:30:00,
2013-03-04 13:40:00,61.3,24.2,30.16,NW,326,1.0,1.0,24,0.00,,,0.00,Wunderground v.1.15,2013-03-04 18:40:00,
2013-03-04 13:45:00,61.5,26.3,30.15,NNW,344,1.0,2.0,26,0.00,,,0.00,Wunderground v.1.15,2013-03-04 18:45:00,
2013-03-04 13:50:00,62.1,26.8,30.15,NNE,14,1.0,3.0,26,0.00,,,0.00,Wunderground v.1.15,2013-03-04 18:50:00,
2013-03-04 14:00:00,62.8,26.4,30.15,NE,53,1.0,1.0,25,0.00,,,0.00,Wunderground v.1.15,2013-03-04 19:00:00,
2013-03-04 14:05:00,63.0,24.6,30.14,ESE,120,1.0,1.0,23,0.00,,,0.00,Wunderground v.1.15,2013-03-04 19:05:00,
2013-03-04 14:15:00,63.1,25.7,30.14,ENE,62,1.0,1.0,24,0.00,,,0.00,Wunderground v.1.15,2013-03-04 19:15:00,
2013-03-04 14:20:00,63.2,27.7,30.14,WNW,293,1.0,3.0,26,0.00,,,0.00,Wunderground v.1.15,2013-03-04 19:20:00,
2013-03-04 14:30:00,63.6,28.1,30.13,South,174,2.0,2.0,26,0.00,,,0.00,Wunderground v.1.15,2013-03-04 19:30:00,
2013-03-04 14:35:00,64.2,26.6,30.13,NNW,327,2.0,2.0,24,0.00,,,0.00,Wunderground v.1.15,2013-03-04 19:35:00,
2013-03-04 14:45:00,63.9,28.3,30.13,NE,40,1.0,3.0,26,0.00,,,0.00,Wunderground v.1.15,2013-03-04 19:45:00,
2013-03-04 14:50:00,64.2,28.6,30.13,WNW,298,1.0,1.0,26,0.00,,,0.00,Wunderground v.1.15,2013-03-04 19:50:00,
2013-03-04 14:55:00,64.1,28.5,30.13,NNW,332,1.0,2.0,26,0.00,,,0.00,Wunderground v.1.15,2013-03-04 19:55:00,
2013-03-04 15:00:00,63.8,29.1,30.13,NW,323,1.0,2.0,27,0.00,,,0.00,Wunderground v.1.15,2013-03-04 20:00:00,
2013-03-04 15:10:00,63.9,29.2,30.13,NNW,340,1.0,1.0,27,0.00,,,0.00,Wunderground v.1.15,2013-03-04 20:10:00,
2013-03-04 15:15:00,64.3,29.6,30.13,NE,52,1.0,1.0,27,0.00,,,0.00,Wunderground v.1.15,2013-03-04 20:15:00,
2013-03-04 15:25:00,64.6,28.9,30.13,NW,316,1.0,1.0,26,0.00,,,0.00,Wunderground v.1.15,2013-03-04 20:25:00,
2013-03-04 15:30:00,64.6,28.9,30.13,North,5,1.0,1.0,26,0.00,,,0.00,Wunderground v.1.15,2013-03-04 20:30:00,
2013-03-04 15:40:00,65.1,29.3,30.13,West,272,1.0,1.0,26,0.00,,,0.00,Wunderground v.1.15,2013-03-04 20:40:00,
2013-03-04 15:45:00,65.7,29.8,30.12,West,276,1.0,2.0,26,0.00,,,0.00,Wunderground v.1.15,2013-03-04 20:45:00,
2013-03-04 15:55:00,66.1,28.2,30.12,South,184,1.0,2.0,24,0.00,,,0.00,Wunderground v.1.15,2013-03-04 20:55:00,
2013-03-04 16:00:00,66.1,29.2,30.12,WNW,296,1.0,1.0,25,0.00,,,0.00,Wunderground v.1.15,2013-03-04 21:00:00,
2013-03-04 16:10:00,65.2,27.5,30.12,North,360,1.0,1.0,24,0.00,,,0.00,Wunderground v.1.15,2013-03-04 21:10:00,
2013-03-04 16:15:00,64.9,29.2,30.12,North,360,0.0,1.0,26,0.00,,,0.00,Wunderground v.1.15,2013-03-04 21:15:00,
2013-03-04 16:25:00,64.4,28.7,30.12,ENE,78,1.0,1.0,26,0.00,,,0.00,Wunderground v.1.15,2013-03-04 21:25:00,
2013-03-04 16:30:00,64.3,29.6,30.11,East,80,1.0,1.0,27,0.00,,,0.00,Wunderground v.1.15,2013-03-04 21:30:00,
2013-03-04 16:40:00,64.2,27.6,30.12,NE,45,0.0,2.0,25,0.00,,,0.00,Wunderground v.1.15,2013-03-04 21:40:00,
2013-03-04 16:45:00,64.2,28.6,30.12,WNW,283,1.0,3.0,26,0.00,,,0.00,Wunderground v.1.15,2013-03-04 21:45:00,
2013-03-04 16:55:00,64.6,27.9,30.12,West,273,1.0,1.0,25,0.00,,,0.00,Wunderground v.1.15,2013-03-04 21:55:00,
2013-03-04 17:00:00,64.6,27.9,30.12,West,278,1.0,1.0,25,0.00,,,0.00,Wunderground v.1.15,2013-03-04 22:00:00,
2013-03-04 17:10:00,64.5,27.9,30.12,WNW,295,0.0,0.0,25,0.00,,,0.00,Wunderground v.1.15,2013-03-04 22:10:00,
2013-03-04 17:15:00,64.4,28.7,30.12,WNW,295,0.0,1.0,26,0.00,,,0.00,Wunderground v.1.15,2013-03-04 22:15:00,
2013-03-04 17:25:00,64.4,27.8,30.12,West,276,0.0,0.0,25,0.00,,,0.00,Wunderground v.1.15,2013-03-04 22:25:00,
2013-03-04 17:30:00,64.4,28.7,30.12,West,276,0.0,0.0,26,0.00,,,0.00,Wunderground v.1.15,2013-03-04 22:30:00,
2013-03-04 17:40:00,64.3,27.7,30.13,West,276,0.0,0.0,25,0.00,,,0.00,Wunderground v.1.15,2013-03-04 22:40:00,
2013-03-04 17:45:00,64.1,29.4,30.13,West,276,0.0,0.0,27,0.00,,,0.00,Wunderground v.1.15,2013-03-04 22:45:00,
2013-03-04 17:55:00,63.4,30.6,30.13,West,276,0.0,0.0,29,0.00,,,0.00,Wunderground v.1.15,2013-03-04 22:55:00,
2013-03-04 18:00:00,63.1,31.1,30.13,West,276,0.0,0.0,30,0.00,,,0.00,Wunderground v.1.15,2013-03-04 23:00:00,
2013-03-04 18:10:00,62.5,31.4,30.13,SE,142,0.0,0.0,31,0.00,,,0.00,Wunderground v.1.15,2013-03-04 23:10:00,
2013-03-04 18:15:00,62.3,31.3,30.13,SE,142,0.0,0.0,31,0.00,,,0.00,Wunderground v.1.15,2013-03-04 23:15:00,
2013-03-04 18:20:00,61.9,32.5,30.14,SE,142,0.0,0.0,33,0.00,,,0.00,Wunderground v.1.15,2013-03-04 23:20:00,
2013-03-04 18:30:00,60.6,32.1,30.14,SE,142,0.0,0.0,34,0.00,,,0.00,Wunderground v.1.15,2013-03-04 23:30:00,
2013-03-04 18:35:00,60.0,32.2,30.14,SE,142,0.0,0.0,35,0.00,,,0.00,Wunderground v.1.15,2013-03-04 23:35:00,
2013-03-04 18:40:00,59.5,32.5,30.14,SE,142,0.0,0.0,36,0.00,,,0.00,Wunderground v.1.15,2013-03-04 23:40:00,
2013-03-04 18:50:00,58.3,32.8,30.14,SE,142,0.0,0.0,38,0.00,,,0.00,Wunderground v.1.15,2013-03-04 23:50:00,
2013-03-04 18:55:00,57.7,32.9,30.14,SE,142,0.0,0.0,39,0.00,,,0.00,Wunderground v.1.15,2013-03-04 23:55:00,
2013-03-04 19:05:00,56.8,33.9,30.14,SE,142,0.0,0.0,42,0.00,,,0.00,Wunderground v.1.15,2013-03-05 00:05:00,
2013-03-04 19:10:00,56.2,33.4,30.14,SE,142,0.0,0.0,42,0.00,,,0.00,Wunderground v.1.15,2013-03-05 00:10:00,
2013-03-04 19:20:00,55.2,33.1,30.14,SE,142,0.0,0.0,43,0.00,,,0.00,Wunderground v.1.15,2013-03-05 00:20:00,
2013-03-04 19:25:00,54.8,33.3,30.14,SE,142,0.0,0.0,44,0.00,,,0.00,Wunderground v.1.15,2013-03-05 00:25:00,
2013-03-04 19:30:00,54.4,33.5,30.14,SE,142,0.0,0.0,45,0.00,,,0.00,Wunderground v.1.15,2013-03-05 00:30:00,
2013-03-04 19:40:00,53.7,32.3,30.15,WSW,247,0.0,0.0,44,0.00,,,0.00,Wunderground v.1.15,2013-03-05 00:40:00,
2013-03-04 19:45:00,53.8,33.5,30.15,WSW,254,1.0,1.0,46,0.00,,,0.00,Wunderground v.1.15,2013-03-05 00:45:00,
2013-03-04 19:50:00,54.0,34.7,30.16,WSW,254,1.0,1.0,48,0.00,,,0.00,Wunderground v.1.15,2013-03-05 00:50:00,
2013-03-04 19:55:00,54.2,35.4,30.16,WSW,253,0.0,1.0,49,0.00,,,0.00,Wunderground v.1.15,2013-03-05 00:55:00,
2013-03-04 20:00:00,54.4,35.6,30.16,West,269,0.0,0.0,49,0.00,,,0.00,Wunderground v.1.15,2013-03-05 01:00:00,
2013-03-04 20:10:00,54.6,35.8,30.16,West,269,0.0,0.0,49,0.00,,,0.00,Wunderground v.1.15,2013-03-05 01:10:00,
2013-03-04 20:15:00,54.4,35.6,30.16,West,269,0.0,0.0,49,0.00,,,0.00,Wunderground v.1.15,2013-03-05 01:15:00,
2013-03-04 20:25:00,54.0,36.8,30.16,West,269,0.0,0.0,52,0.00,,,0.00,Wunderground v.1.15,2013-03-05 01:25:00,
2013-03-04 20:30:00,53.7,36.5,30.16,West,269,0.0,0.0,52,0.00,,,0.00,Wunderground v.1.15,2013-03-05 01:30:00,
2013-03-04 20:35:00,53.4,36.7,30.16,West,269,0.0,0.0,53,0.00,,,0.00,Wunderground v.1.15,2013-03-05 01:35:00,
2013-03-04 20:45:00,52.8,36.1,30.17,West,269,0.0,0.0,53,0.00,,,0.00,Wunderground v.1.15,2013-03-05 01:45:00,
2013-03-04 20:50:00,52.4,35.8,30.17,West,269,0.0,0.0,53,0.00,,,0.00,Wunderground v.1.15,2013-03-05 01:50:00,
2013-03-04 21:00:00,51.9,36.2,30.17,West,269,0.0,0.0,55,0.00,,,0.00,Wunderground v.1.15,2013-03-05 02:00:00,
2013-03-04 21:05:00,51.6,36.4,30.17,West,269,0.0,0.0,56,0.00,,,0.00,Wunderground v.1.15,2013-03-05 02:05:00,
2013-03-04 21:15:00,50.9,35.7,30.17,West,269,0.0,0.0,56,0.00,,,0.00,Wunderground v.1.15,2013-03-05 02:15:00,
2013-03-04 21:20:00,50.5,35.8,30.17,West,269,0.0,0.0,57,0.00,,,0.00,Wunderground v.1.15,2013-03-05 02:20:00,
2013-03-04 21:30:00,49.8,36.0,30.17,West,269,0.0,0.0,59,0.00,,,0.00,Wunderground v.1.15,2013-03-05 02:30:00,
2013-03-04 21:35:00,49.4,36.1,30.18,West,269,0.0,0.0,60,0.00,,,0.00,Wunderground v.1.15,2013-03-05 02:35:00,
2013-03-04 21:40:00,49.2,36.3,30.18,West,269,0.0,0.0,61,0.00,,,0.00,Wunderground v.1.15,2013-03-05 02:40:00,
2013-03-04 21:50:00,48.9,36.4,30.17,West,269,0.0,0.0,62,0.00,,,0.00,Wunderground v.1.15,2013-03-05 02:50:00,
2013-03-04 21:55:00,48.7,36.7,30.17,West,269,0.0,0.0,63,0.00,,,0.00,Wunderground v.1.15,2013-03-05 02:55:00,
2013-03-04 22:05:00,48.0,36.4,30.17,West,269,0.0,0.0,64,0.00,,,0.00,Wunderground v.1.15,2013-03-05 03:05:00,
2013-03-04 22:10:00,47.6,36.4,30.17,West,269,0.0,0.0,65,0.00,,,0.00,Wunderground v.1.15,2013-03-05 03:10:00,
2013-03-04 22:20:00,47.0,36.6,30.17,West,269,0.0,0.0,67,0.00,,,0.00,Wunderground v.1.15,2013-03-05 03:20:00,
2013-03-04 22:25:00,46.7,36.7,30.17,West,269,0.0,0.0,68,0.00,,,0.00,Wunderground v.1.15,2013-03-05 03:25:00,
2013-03-04 22:30:00,46.5,36.9,30.17,West,269,0.0,0.0,69,0.00,,,0.00,Wunderground v.1.15,2013-03-05 03:30:00,
2013-03-04 22:40:00,45.9,37.0,30.17,West,269,0.0,0.0,71,0.00,,,0.00,Wunderground v.1.15,2013-03-05 03:40:00,
2013-03-04 22:45:00,45.5,37.0,30.17,West,269,0.0,0.0,72,0.00,,,0.00,Wunderground v.1.15,2013-03-05 03:45:00,
2013-03-04 22:55:00,45.0,36.9,30.17,West,269,0.0,0.0,73,0.00,,,0.00,Wunderground v.1.15,2013-03-05 03:55:00,
2013-03-04 23:00:00,44.8,37.0,30.17,West,269,0.0,0.0,74,0.00,,,0.00,Wunderground v.1.15,2013-03-05 04:00:00,
2013-03-04 23:10:00,44.3,36.5,30.17,West,269,0.0,0.0,74,0.00,,,0.00,Wunderground v.1.15,2013-03-05 04:10:00,
2013-03-04 23:15:00,44.3,36.5,30.17,SSE,157,0.0,0.0,74,0.00,,,0.00,Wunderground v.1.15,2013-03-05 04:15:00,
2013-03-04 23:20:00,44.3,36.9,30.17,SSE,155,0.0,0.0,75,0.00,,,0.00,Wunderground v.1.15,2013-03-05 04:20:00,
2013-03-04 23:30:00,44.4,36.6,30.16,SSW,211,0.0,0.0,74,0.00,,,0.00,Wunderground v.1.15,2013-03-05 04:30:00,
2013-03-04 23:40:00,44.4,37.0,30.16,SSW,211,0.0,0.0,75,0.00,,,0.00,Wunderground v.1.15,2013-03-05 04:40:00,
2013-03-04 23:45:00,44.4,36.6,30.16,SSW,211,0.0,0.0,74,0.00,,,0.00,Wunderground v.1.15,2013-03-05 04:45:00,
2013-03-04 23:50:00,44.5,36.7,30.15,SSW,211,0.0,0.0,74,0.00,,,0.00,Wunderground v.1.15,2013-03-05 04:50:00,
2013-03-04 23:55:00,44.5,37.1,30.15,SSW,211,0.0,0.0,75,0.00,,,0.00,Wunderground v.1.15,2013-03-05 04:55:00,